Time;durP1;ratioP1;P1;durP2;ratioP2;P2;SDS_P1;SDS_P2;PMS_P1;PMS_P2;Temp;Humidity;BMP_temperature;BMP_pressure;BME280_temperature;BME280_humidity;BME280_pressure;Samples;Min_cycle;Max_cycle;Signal;HPM_P1;HPM_P2
2021/10/31 00:00:50;;;;;;;38.88;18.35;;;;;;;8.72;100.00;101081.31;5002417;28;20417;-63
2021/10/31 00:03:35;;;;;;;;;;;;;;;8.74;100.00;101084.84;5024506;28;20052;-62
2021/10/31 00:06:20;;;;;;;37.13;18.67;;;;;;;8.71;100.00;101076.03;5012263;28;20395;-58
2021/10/31 00:09:07;;;;;;;34.58;18.25;;;;;;;8.68;100.00;101076.00;5023413;28;21014;-61
2021/10/31 00:11:52;;;;;;;36.15;17.60;;;;;;;8.72;100.00;101078.69;5025510;28;20135;-62
2021/10/31 00:14:37;;;;;;;43.78;19.60;;;;;;;8.51;100.00;101078.47;5024779;28;20127;-63
2021/10/31 00:17:22;;;;;;;34.88;18.13;;;;;;;8.62;100.00;101079.47;5023958;28;20056;-67
2021/10/31 00:20:08;;;;;;;35.08;18.38;;;;;;;8.59;100.00;101086.50;5010269;28;20044;-57
2021/10/31 00:22:53;;;;;;;36.05;18.38;;;;;;;8.42;100.00;101075.75;5016459;28;20819;-60
2021/10/31 00:25:38;;;;;;;32.88;18.27;;;;;;;8.54;100.00;101072.31;5018097;28;20061;-61
2021/10/31 00:28:24;;;;;;;;;;;;;;;8.65;100.00;101081.25;5010248;28;20064;-59
2021/10/31 00:31:10;;;;;;;34.53;17.20;;;;;;;8.48;100.00;101081.13;5018634;28;20035;-60
2021/10/31 00:33:55;;;;;;;37.70;18.15;;;;;;;8.36;100.00;101085.38;5023491;28;20139;-56
2021/10/31 00:36:40;;;;;;;34.28;16.98;;;;;;;8.23;100.00;101075.56;5022399;28;20060;-63
2021/10/31 00:39:26;;;;;;;33.38;17.25;;;;;;;8.21;100.00;101077.28;5012459;28;20480;-60
2021/10/31 00:42:12;;;;;;;31.48;16.67;;;;;;;8.35;100.00;101073.91;5027890;28;20053;-63
2021/10/31 00:44:57;;;;;;;34.80;18.55;;;;;;;8.44;100.00;101067.84;5028892;28;20151;-59
2021/10/31 00:47:42;;;;;;;;;;;;;;;8.54;100.00;101069.69;5028976;28;20063;-61
2021/10/31 00:50:26;;;;;;;32.78;17.05;;;;;;;8.56;100.00;101067.94;5029106;28;20455;-66
2021/10/31 00:53:11;;;;;;;32.70;18.40;;;;;;;8.45;100.00;101066.97;5012929;28;20111;-61
2021/10/31 00:55:56;;;;;;;33.20;16.90;;;;;;;8.42;100.00;101057.25;5027300;28;20045;-59
2021/10/31 00:58:40;;;;;;;32.97;17.52;;;;;;;8.50;100.00;101057.31;5028733;28;20099;-58
2021/10/31 01:01:28;;;;;;;32.30;17.75;;;;;;;8.38;100.00;101060.75;5027864;28;20052;-58
2021/10/31 01:04:19;;;;;;;32.85;16.67;;;;;;;8.34;100.00;101063.31;5024243;28;20172;-63
2021/10/31 01:07:56;;;;;;;29.55;16.08;;;;;;;8.51;100.00;101054.69;5027626;28;20160;-59
2021/10/31 01:11:02;;;;;;;33.40;17.48;;;;;;;8.49;100.00;101058.19;4929810;29;20110;-66
2021/10/31 01:14:07;;;;;;;31.58;17.27;;;;;;;8.32;100.00;101055.38;4930201;29;20066;-60
2021/10/31 01:17:21;;;;;;;33.55;17.67;;;;;;;8.35;100.00;101051.91;4938207;29;20107;-60
2021/10/31 01:20:21;;;;;;;34.03;17.80;;;;;;;8.13;100.00;101048.13;4886847;29;20055;-64
2021/10/31 01:23:19;;;;;;;33.53;18.08;;;;;;;8.13;100.00;101048.13;4911362;29;20091;-61
2021/10/31 01:26:42;;;;;;;34.90;17.15;;;;;;;8.21;100.00;101048.22;4883067;29;20409;-60
2021/10/31 01:30:09;;;;;;;32.75;17.38;;;;;;;8.23;100.00;101035.94;4842570;29;20488;-61
2021/10/31 01:33:12;;;;;;;;;;;;;;;8.12;100.00;101040.19;4838657;29;20491;-63
2021/10/31 01:36:17;;;;;;;31.58;16.60;;;;;;;7.95;100.00;101039.13;4855756;29;20051;-58
2021/10/31 01:39:17;;;;;;;32.47;17.23;;;;;;;7.89;100.00;101039.06;4840653;29;20592;-61
2021/10/31 01:42:28;;;;;;;30.77;16.77;;;;;;;7.89;100.00;101026.75;4845291;29;20053;-60
2021/10/31 01:45:27;;;;;;;31.33;15.63;;;;;;;8.06;100.00;101026.91;4833373;29;20053;-63
2021/10/31 01:48:35;;;;;;;32.60;16.48;;;;;;;7.87;100.00;101024.97;4881015;29;20506;-68
2021/10/31 01:51:48;;;;;;;29.80;16.17;;;;;;;7.83;100.00;101034.59;4890554;29;20132;-65
2021/10/31 01:54:41;;;;;;;27.60;15.10;;;;;;;7.74;100.00;101030.97;4875349;29;20101;-61
2021/10/31 01:57:28;;;;;;;27.20;15.07;;;;;;;7.77;100.00;101025.72;4953502;28;20090;-57
2021/10/31 02:00:16;;;;;;;31.15;15.10;;;;;;;7.81;100.00;101028.44;4951657;28;20142;-58
2021/10/31 02:03:02;;;;;;;30.55;15.90;;;;;;;7.66;100.00;101016.78;4958404;28;20095;-59
2021/10/31 02:05:50;;;;;;;27.05;15.20;;;;;;;7.68;100.00;101020.34;5008165;28;20044;-58
2021/10/31 02:08:37;;;;;;;29.08;14.75;;;;;;;7.87;100.00;101022.31;5003681;28;20095;-67
2021/10/31 02:11:24;;;;;;;27.20;15.18;;;;;;;7.93;100.00;101019.75;5012484;28;20555;-60
2021/10/31 02:14:10;;;;;;;27.30;15.48;;;;;;;7.81;100.00;101009.03;5027158;28;20103;-63
2021/10/31 02:16:57;;;;;;;24.75;14.82;;;;;;;7.97;100.00;101017.16;5025940;28;20110;-59
2021/10/31 02:19:47;;;;;;;25.80;14.38;;;;;;;7.92;100.00;101015.34;5028143;28;20056;-67
2021/10/31 02:22:34;;;;;;;28.63;15.02;;;;;;;7.85;100.00;101017.03;4996657;28;20061;-65
2021/10/31 02:25:21;;;;;;;27.15;14.70;;;;;;;7.64;100.00;101016.75;5024354;28;20048;-61
2021/10/31 02:28:05;;;;;;;25.08;14.40;;;;;;;7.51;100.00;101016.59;5026676;28;20052;-61
2021/10/31 02:30:51;;;;;;;28.00;15.43;;;;;;;7.48;100.00;101017.44;5012396;28;20109;-58
2021/10/31 02:33:37;;;;;;;25.20;14.75;;;;;;;7.61;100.00;101021.13;5011896;28;20300;-61
2021/10/31 02:36:22;;;;;;;27.48;13.57;;;;;;;7.56;100.00;101009.66;4999129;28;20057;-66
2021/10/31 02:39:09;;;;;;;26.27;14.40;;;;;;;7.62;100.00;101018.53;5027155;28;20061;-64
2021/10/31 02:41:54;;;;;;;25.58;13.75;;;;;;;7.60;100.00;101014.97;5018382;28;20051;-57
2021/10/31 02:44:40;;;;;;;22.63;13.32;;;;;;;7.58;100.00;101011.44;5027199;28;20052;-62
2021/10/31 02:47:27;;;;;;;23.88;12.65;;;;;;;7.56;100.00;101007.00;5012429;28;20052;-58
2021/10/31 02:50:16;;;;;;;24.30;13.68;;;;;;;7.51;100.00;101006.03;5012680;28;20049;-66
2021/10/31 02:53:22;;;;;;;23.58;13.52;;;;;;;7.50;100.00;101013.09;5012784;28;20060;-58
2021/10/31 02:56:19;;;;;;;24.85;14.02;;;;;;;7.41;100.00;101006.81;5019245;28;20052;-63
2021/10/31 02:59:22;;;;;;;28.27;15.10;;;;;;;7.24;100.00;100993.41;5022866;28;20056;-63
2021/10/31 03:02:07;;;;;;;29.42;15.60;;;;;;;7.31;100.00;101010.19;5009320;28;20579;-62
2021/10/31 03:04:52;;;;;;;26.08;14.20;;;;;;;7.24;100.00;100996.03;5019184;28;20049;-61
2021/10/31 03:07:38;;;;;;;26.25;14.30;;;;;;;7.12;100.00;100987.97;5025369;28;20051;-67
2021/10/31 03:10:23;;;;;;;27.50;14.02;;;;;;;7.10;100.00;100995.00;5026108;28;20096;-62
2021/10/31 03:13:08;;;;;;;26.15;14.13;;;;;;;7.12;100.00;100995.88;5026288;28;20136;-60
2021/10/31 03:15:54;;;;;;;28.90;14.68;;;;;;;7.15;100.00;100990.66;5008745;28;20049;-66
2021/10/31 03:18:39;;;;;;;24.58;13.05;;;;;;;7.21;100.00;101003.03;5030594;28;20166;-62
2021/10/31 03:21:25;;;;;;;23.02;13.20;;;;;;;6.96;100.00;100987.75;5035713;28;20083;-63
2021/10/31 03:24:09;;;;;;;23.30;13.40;;;;;;;7.05;100.00;100998.44;5023854;28;20528;-60
2021/10/31 03:26:54;;;;;;;24.90;13.82;;;;;;;7.02;100.00;100996.63;5025892;28;20111;-61
2021/10/31 03:29:39;;;;;;;23.10;13.13;;;;;;;6.85;100.00;100973.53;5010486;28;20644;-60
2021/10/31 03:32:24;;;;;;;24.13;13.40;;;;;;;6.95;100.00;100988.59;5022086;28;20417;-59
2021/10/31 03:35:09;;;;;;;27.55;14.23;;;;;;;7.02;100.00;100983.47;5023688;28;20056;-62
2021/10/31 03:37:55;;;;;;;24.77;13.82;;;;;;;7.00;100.00;100985.16;4996156;28;20532;-63
2021/10/31 03:40:39;;;;;;;25.23;13.80;;;;;;;6.98;100.00;100986.91;5007445;28;20132;-66
2021/10/31 03:43:24;;;;;;;24.38;13.07;;;;;;;6.84;100.00;100980.56;5015947;28;20048;-62
2021/10/31 03:46:09;;;;;;;23.27;13.48;;;;;;;6.78;100.00;100979.59;5026748;28;20056;-64
2021/10/31 03:48:53;;;;;;;23.38;13.48;;;;;;;6.82;100.00;100974.38;5025195;28;20405;-59
2021/10/31 03:51:37;;;;;;;25.15;13.25;;;;;;;6.89;100.00;100976.22;5026288;28;20527;-60
2021/10/31 03:54:23;;;;;;;26.00;13.48;;;;;;;6.99;100.00;100977.22;5022411;28;20076;-67
2021/10/31 03:57:08;;;;;;;26.45;13.63;;;;;;;6.99;100.00;100975.50;5026029;28;20137;-62
2021/10/31 03:59:52;;;;;;;24.15;12.25;;;;;;;7.08;100.00;100978.25;5003492;28;20108;-62
2021/10/31 04:02:38;;;;;;;27.67;13.15;;;;;;;6.97;100.00;100973.72;5003748;28;20568;-62
2021/10/31 04:05:23;;;;;;;23.55;12.65;;;;;;;6.87;100.00;100962.16;5006320;28;20061;-63
2021/10/31 04:08:08;;;;;;;25.85;13.32;;;;;;;6.92;100.00;100975.41;5007541;28;20048;-61
2021/10/31 04:10:53;;;;;;;23.95;13.02;;;;;;;6.94;100.00;100955.19;5025866;28;20056;-64
2021/10/31 04:13:39;;;;;;;26.67;12.95;;;;;;;7.06;100.00;100966.81;5013200;28;20107;-64
2021/10/31 04:16:24;;;;;;;22.35;12.80;;;;;;;7.03;100.00;100966.75;5030729;28;20469;-62
2021/10/31 04:19:09;;;;;;;24.73;13.27;;;;;;;6.95;100.00;100964.88;5028333;28;20051;-63
2021/10/31 04:21:53;;;;;;;23.25;13.05;;;;;;;6.95;100.00;100971.03;5029772;28;20057;-60
2021/10/31 04:24:38;;;;;;;26.40;12.55;;;;;;;6.87;100.00;100967.41;5013462;28;20052;-59
2021/10/31 04:27:24;;;;;;;25.20;13.00;;;;;;;6.63;100.00;100963.53;5028806;28;20052;-59
2021/10/31 04:30:10;;;;;;;27.30;12.77;;;;;;;6.51;100.00;100951.09;5010700;28;20513;-59
2021/10/31 04:32:55;;;;;;;24.92;12.45;;;;;;;6.41;100.00;100959.69;5005851;28;20056;-63
2021/10/31 04:35:40;;;;;;;24.52;12.90;;;;;;;6.41;100.00;100956.19;5000953;28;20052;-58
2021/10/31 04:38:30;;;;;;;28.92;14.00;;;;;;;6.49;100.00;100957.19;5014071;28;20052;-60
2021/10/31 04:41:14;;;;;;;27.63;12.63;;;;;;;6.49;100.00;100944.03;4994845;28;20068;-62
2021/10/31 04:43:59;;;;;;;22.90;12.30;;;;;;;6.50;100.00;100957.22;5006668;28;20129;-62
2021/10/31 04:46:43;;;;;;;27.30;13.98;;;;;;;6.56;100.00;100948.53;5028397;28;20048;-66
2021/10/31 04:49:29;;;;;;;;;;;;;;;6.60;100.00;100953.84;5012073;28;20075;-64
2021/10/31 04:52:14;;;;;;;24.58;12.40;;;;;;;6.47;100.00;100954.53;5039396;28;19927;-62
2021/10/31 04:54:59;;;;;;;25.63;14.00;;;;;;;6.45;100.00;100955.38;5027508;28;20167;-64
2021/10/31 04:57:43;;;;;;;27.00;13.05;;;;;;;6.53;100.00;100951.09;5027458;28;21097;-64
2021/10/31 05:00:28;;;;;;;25.83;12.98;;;;;;;6.59;100.00;100959.09;5028917;28;20516;-62
2021/10/31 05:03:12;;;;;;;25.90;13.68;;;;;;;6.57;100.00;100948.53;5029072;28;20048;-60
2021/10/31 05:05:57;;;;;;;26.95;12.57;;;;;;;6.67;100.00;100955.72;5026349;28;20424;-69
2021/10/31 05:08:42;;;;;;;26.95;12.10;;;;;;;6.59;100.00;100948.53;5012336;28;20107;-60
2021/10/31 05:11:27;;;;;;;22.15;11.77;;;;;;;6.68;100.00;100960.09;5024229;28;20053;-57
2021/10/31 05:14:13;;;;;;;26.45;13.10;;;;;;;6.67;100.00;100958.34;5013083;28;20059;-61
2021/10/31 05:16:58;;;;;;;29.38;13.45;;;;;;;6.65;100.00;100962.69;5012632;28;20079;-60
2021/10/31 05:19:43;;;;;;;24.80;12.35;;;;;;;6.69;100.00;100958.38;4984990;28;20060;-65
2021/10/31 05:22:28;;;;;;;25.80;13.02;;;;;;;6.70;100.00;100961.03;5028285;28;20524;-65
2021/10/31 05:25:14;;;;;;;24.33;13.48;;;;;;;6.75;100.00;100959.34;5026864;28;20429;-63
2021/10/31 05:28:00;;;;;;;28.33;13.82;;;;;;;6.70;100.00;100957.50;5028533;28;20562;-61
2021/10/31 05:30:45;;;;;;;26.83;13.00;;;;;;;6.77;100.00;100956.72;5010991;28;20158;-62
2021/10/31 05:33:29;;;;;;;23.48;12.20;;;;;;;6.87;100.00;100951.59;5026706;28;20528;-63
2021/10/31 05:36:14;;;;;;;24.75;11.48;;;;;;;6.85;100.00;100950.69;5027808;28;20061;-65
2021/10/31 05:39:00;;;;;;;23.00;11.73;;;;;;;6.83;100.00;100951.53;4998049;28;20099;-61
2021/10/31 05:41:44;;;;;;;26.83;13.50;;;;;;;6.82;100.00;100953.31;5028201;28;20052;-64
2021/10/31 05:44:29;;;;;;;26.13;13.20;;;;;;;6.83;100.00;100951.53;5025748;28;20433;-63
2021/10/31 05:47:13;;;;;;;22.65;12.23;;;;;;;6.91;100.00;100942.88;5027527;28;20075;-62
2021/10/31 05:49:58;;;;;;;21.25;11.38;;;;;;;7.00;100.00;100942.13;5024833;28;20076;-55
2021/10/31 05:52:45;;;;;;;23.00;11.95;;;;;;;7.00;100.00;100942.13;5004560;28;20541;-65
2021/10/31 05:55:30;;;;;;;25.20;11.98;;;;;;;7.02;100.00;100949.19;5015844;28;20091;-63
2021/10/31 05:58:16;;;;;;;24.73;12.27;;;;;;;7.19;100.00;100944.09;5006422;28;20111;-64
2021/10/31 06:01:01;;;;;;;22.90;12.25;;;;;;;7.11;100.00;100943.13;5012232;28;20582;-60
2021/10/31 06:03:46;;;;;;;22.33;11.82;;;;;;;7.22;100.00;100941.50;5025716;28;20056;-60
2021/10/31 06:06:33;;;;;;;23.15;11.85;;;;;;;7.29;100.00;100938.97;5026352;28;20055;-66
2021/10/31 06:09:18;;;;;;;25.02;11.95;;;;;;;7.33;100.00;100939.88;5023583;28;20072;-61
2021/10/31 06:12:06;;;;;;;;;;;;;;;7.34;100.00;100945.19;5028573;28;20549;-61
2021/10/31 06:14:52;;;;;;;24.48;11.60;;;;;;;7.32;100.00;100941.63;5026784;28;19923;-65
2021/10/31 06:17:39;;;;;;;22.40;11.32;;;;;;;7.39;100.00;100938.19;5026956;28;20129;-67
2021/10/31 06:20:24;;;;;;;20.92;10.85;;;;;;;7.46;100.00;100940.03;5027782;28;20067;-65
2021/10/31 06:23:09;;;;;;;21.33;10.40;;;;;;;7.42;100.00;100932.97;5025340;28;20048;-66
2021/10/31 06:25:54;;;;;;;19.77;10.80;;;;;;;7.54;100.00;100933.09;5025017;28;20512;-60
2021/10/31 06:28:39;;;;;;;19.92;9.98;;;;;;;7.73;100.00;100942.97;5027757;28;20129;-58
2021/10/31 06:31:24;;;;;;;;;;;;;;;7.74;100.00;100930.63;5013005;28;20052;-61
2021/10/31 06:34:09;;;;;;;22.02;10.55;;;;;;;7.74;100.00;100934.19;5015421;28;19923;-64
2021/10/31 06:36:53;;;;;;;28.25;11.52;;;;;;;7.71;100.00;100920.06;5016596;28;20057;-63
2021/10/31 06:39:38;;;;;;;20.23;11.25;;;;;;;7.92;100.00;100939.63;5024516;28;20116;-63
2021/10/31 06:42:26;;;;;;;20.10;10.63;;;;;;;8.06;100.00;100932.72;5024347;28;20124;-64
2021/10/31 06:45:11;;;;;;;19.38;10.07;;;;;;;8.10;100.00;100937.16;5011839;28;20071;-67
2021/10/31 06:47:56;;;;;;;25.80;10.70;;;;;;;8.15;100.00;100943.34;5015589;28;21006;-62
2021/10/31 06:50:41;;;;;;;20.17;10.68;;;;;;;8.14;100.00;100946.88;4997345;28;20056;-57
2021/10/31 06:53:26;;;;;;;16.77;10.43;;;;;;;8.07;100.00;100942.41;5011254;28;20099;-64
2021/10/31 06:56:11;;;;;;;19.40;10.02;;;;;;;8.19;100.00;100928.44;5021307;28;20039;-66
2021/10/31 06:58:57;;;;;;;19.58;10.32;;;;;;;8.09;100.00;100938.03;5024645;28;20052;-64
2021/10/31 07:01:42;;;;;;;20.50;10.75;;;;;;;8.11;100.00;100936.25;5024181;28;20072;-63
2021/10/31 07:04:29;;;;;;;20.08;10.13;;;;;;;8.07;100.00;100950.31;5023524;28;20140;-64
2021/10/31 07:07:15;;;;;;;18.25;10.35;;;;;;;8.18;100.00;100940.75;4995036;28;20099;-66
2021/10/31 07:09:59;;;;;;;17.55;9.75;;;;;;;8.22;100.00;100936.38;5009353;28;20052;-67
2021/10/31 07:12:44;;;;;;;18.88;9.63;;;;;;;8.26;100.00;100940.81;5025989;28;20043;-65
2021/10/31 07:15:30;;;;;;;16.30;9.48;;;;;;;8.45;100.00;100941.00;5023357;28;20064;-65
2021/10/31 07:18:14;;;;;;;21.10;9.30;;;;;;;8.48;100.00;100940.13;5025134;28;20424;-67
2021/10/31 07:21:00;;;;;;;18.50;9.95;;;;;;;8.50;100.00;100938.34;5024424;28;20536;-69
2021/10/31 07:23:44;;;;;;;19.20;10.70;;;;;;;8.45;100.00;100933.06;5002880;28;20051;-65
2021/10/31 07:26:30;;;;;;;18.42;9.93;;;;;;;8.62;100.00;100944.63;4989764;28;20113;-68
2021/10/31 07:29:15;;;;;;;17.60;9.82;;;;;;;8.57;100.00;100933.13;5023680;28;20506;-67
2021/10/31 07:32:02;;;;;;;15.50;9.48;;;;;;;8.66;100.00;100942.88;5002410;28;20060;-63
2021/10/31 07:34:47;;;;;;;17.45;10.00;;;;;;;8.74;100.00;100930.56;4996402;28;20418;-64
2021/10/31 07:37:36;;;;;;;20.15;10.30;;;;;;;8.63;100.00;100932.31;5025757;28;20048;-65
2021/10/31 07:40:22;;;;;;;19.60;10.68;;;;;;;8.71;100.00;100936.75;5024521;28;20083;-66
2021/10/31 07:43:07;;;;;;;18.33;10.23;;;;;;;10.37;100.00;100930.19;5026861;28;20052;-69
2021/10/31 07:45:54;;;;;;;16.17;9.60;;;;;;;12.29;100.00;100936.38;5019482;28;20095;-65
2021/10/31 07:48:39;;;;;;;20.15;10.77;;;;;;;13.23;100.00;100938.13;5040971;28;20567;-68
2021/10/31 07:51:28;;;;;;;16.48;9.90;;;;;;;14.48;100.00;100952.28;5023119;28;20056;-68
2021/10/31 07:54:17;;;;;;;20.17;10.60;;;;;;;15.35;100.00;100936.41;4998917;28;20478;-66
2021/10/31 07:57:02;;;;;;;17.98;9.57;;;;;;;15.74;100.00;100944.44;5029673;28;20200;-66
2021/10/31 07:59:47;;;;;;;19.45;11.43;;;;;;;16.22;93.80;100948.66;5002470;28;20424;-64
2021/10/31 08:02:32;;;;;;;16.13;10.75;;;;;;;16.25;92.73;100934.31;5013908;28;20140;-66
2021/10/31 08:05:18;;;;;;;15.25;9.40;;;;;;;17.09;82.88;100940.19;4999949;28;20052;-66
2021/10/31 08:08:05;;;;;;;14.82;9.95;;;;;;;16.47;81.73;100940.94;4999571;28;20583;-59
2021/10/31 08:10:50;;;;;;;15.82;10.05;;;;;;;16.08;85.01;100950.81;5018423;28;20084;-65
2021/10/31 08:13:35;;;;;;;;;;;;;;;16.94;83.57;100949.50;5008230;28;20071;-68
2021/10/31 08:16:22;;;;;;;17.63;10.88;;;;;;;16.96;76.42;100944.97;5007686;28;19928;-65
2021/10/31 08:19:08;;;;;;;14.75;9.45;;;;;;;17.55;72.27;100954.94;5016826;28;20052;-67
2021/10/31 08:21:53;;;;;;;18.45;10.43;;;;;;;17.32;69.85;100945.75;5013548;28;20465;-65
2021/10/31 08:24:38;;;;;;;14.10;9.60;;;;;;;17.45;68.11;100953.44;5012266;28;20817;-63
2021/10/31 08:27:24;;;;;;;14.43;10.00;;;;;;;18.47;63.94;100949.34;5013093;28;20057;-65
2021/10/31 08:30:09;;;;;;;15.27;10.18;;;;;;;16.98;63.47;100951.16;5026699;28;20095;-64
2021/10/31 08:33:18;;;;;;;13.50;9.38;;;;;;;17.55;68.01;100962.09;5015341;28;20059;-66
2021/10/31 08:36:06;;;;;;;15.98;9.80;;;;;;;18.08;56.75;100967.59;5011647;28;20064;-66
2021/10/31 08:38:52;;;;;;;15.48;10.30;;;;;;;16.83;66.50;100959.63;5009403;28;20099;-68
2021/10/31 08:41:39;;;;;;;14.38;10.45;;;;;;;17.49;64.34;100971.19;5000027;28;20143;-64
2021/10/31 08:44:24;;;;;;;16.73;10.55;;;;;;;17.42;62.58;100964.28;5018805;28;20052;-62
2021/10/31 08:47:09;;;;;;;12.63;9.75;;;;;;;18.37;61.41;100966.69;5029052;28;20055;-63
2021/10/31 08:49:53;;;;;;;;;;;;;;;18.38;63.59;100973.81;5028209;28;20064;-63
2021/10/31 08:52:39;;;;;;;14.75;11.57;;;;;;;16.13;65.74;100972.09;5028340;28;19975;-64
2021/10/31 08:55:23;;;;;;;15.63;11.10;;;;;;;16.78;71.10;100977.63;5011756;28;20061;-65
2021/10/31 08:58:10;;;;;;;15.80;11.55;;;;;;;17.85;65.08;100972.78;5020335;28;20060;-66
2021/10/31 09:00:54;;;;;;;15.82;10.85;;;;;;;17.40;61.68;100975.91;5020640;28;20409;-64
2021/10/31 09:03:40;;;;;;;20.00;11.18;;;;;;;19.52;57.54;100971.59;5025909;28;20579;-66
2021/10/31 09:06:26;;;;;;;16.23;10.55;;;;;;;19.44;49.66;100974.59;5027832;28;20084;-65
2021/10/31 09:09:11;;;;;;;17.52;10.65;;;;;;;19.46;49.98;100963.78;5026304;28;20479;-64
2021/10/31 09:11:56;;;;;;;15.07;10.43;;;;;;;20.04;45.84;100974.03;5010675;28;20060;-71
2021/10/31 09:14:41;;;;;;;15.88;9.88;;;;;;;20.48;45.39;100970.47;5026740;28;20060;-62
2021/10/31 09:17:26;;;;;;;13.23;10.38;;;;;;;21.40;43.22;100972.78;5010263;28;20049;-63
2021/10/31 09:20:15;;;;;;;12.23;10.02;;;;;;;22.25;39.27;100975.03;5021345;28;20057;-65
2021/10/31 09:23:03;;;;;;;14.52;10.55;;;;;;;20.81;40.94;100959.16;5027326;28;20052;-64
2021/10/31 09:25:48;;;;;;;13.05;9.25;;;;;;;22.18;40.25;100962.81;5023797;28;20080;-62
2021/10/31 09:28:35;;;;;;;14.32;9.93;;;;;;;21.95;38.88;100966.56;5026198;28;20557;-66
2021/10/31 09:31:20;;;;;;;17.33;10.50;;;;;;;19.10;41.80;100957.88;5004252;28;20056;-64
2021/10/31 09:34:05;;;;;;;14.40;9.88;;;;;;;18.97;47.80;100961.03;5027280;28;20198;-65
2021/10/31 09:36:50;;;;;;;16.80;11.02;;;;;;;19.41;46.94;100958.53;5027674;28;20486;-64
2021/10/31 09:39:36;;;;;;;11.90;9.13;;;;;;;19.34;46.90;100945.41;5027905;28;20115;-64
2021/10/31 09:42:21;;;;;;;14.13;9.43;;;;;;;18.44;49.13;100946.78;5024094;28;20079;-64
2021/10/31 09:45:09;;;;;;;15.68;9.82;;;;;;;18.11;51.88;100944.28;4988509;28;20553;-63
2021/10/31 09:48:06;;;;;;;13.40;9.60;;;;;;;20.46;47.38;100948.13;5012131;28;20102;-64
2021/10/31 09:50:51;;;;;;;15.43;10.43;;;;;;;19.64;43.88;100944.22;5017096;28;20048;-63
2021/10/31 09:53:36;;;;;;;13.75;10.00;;;;;;;19.77;44.16;100942.81;5025155;28;20056;-71
2021/10/31 09:56:22;;;;;;;14.50;10.27;;;;;;;19.77;44.27;100945.50;5019112;28;20086;-64
2021/10/31 09:59:12;;;;;;;15.90;10.40;;;;;;;20.24;45.51;100947.22;4996341;28;20111;-67
2021/10/31 10:02:26;;;;;;;12.18;9.48;;;;;;;21.04;41.24;100944.69;4999889;28;20094;-66
2021/10/31 10:05:03;;;;;;;13.63;9.80;;;;;;;20.81;39.84;100950.19;5020998;28;20108;-63
2021/10/31 10:08:17;;;;;;;13.60;10.15;;;;;;;20.61;41.73;100937.56;5023114;28;20159;-65
2021/10/31 10:11:02;;;;;;;14.70;10.63;;;;;;;19.84;41.72;100936.25;5003343;28;20052;-65
2021/10/31 10:13:47;;;;;;;13.98;9.77;;;;;;;19.81;42.93;100937.25;5012395;28;20154;-65
2021/10/31 10:16:32;;;;;;;15.00;9.82;;;;;;;19.40;44.49;100929.00;5026275;28;20068;-64
2021/10/31 10:19:28;;;;;;;15.27;10.13;;;;;;;19.88;44.50;100935.19;5025561;28;20141;-64
2021/10/31 10:22:17;;;;;;;13.15;9.35;;;;;;;19.94;42.32;100918.81;5019258;28;20064;-64
2021/10/31 10:25:03;;;;;;;19.55;10.68;;;;;;;20.26;40.93;100929.19;5010771;28;20130;-63
2021/10/31 10:27:52;;;;;;;14.55;9.43;;;;;;;20.21;40.26;100921.28;5011618;28;20052;-69
2021/10/31 10:30:37;;;;;;;16.65;9.43;;;;;;;20.13;39.77;100909.09;5027037;28;20091;-63
2021/10/31 10:33:22;;;;;;;16.67;10.55;;;;;;;20.23;40.60;100929.31;4995420;28;20088;-63
2021/10/31 10:36:15;;;;;;;13.98;9.90;;;;;;;20.46;39.53;100921.16;5026238;28;20045;-63
2021/10/31 10:39:06;;;;;;;18.23;11.77;;;;;;;20.45;39.84;100920.28;5026191;28;20592;-63
2021/10/31 10:41:54;;;;;;;15.15;10.02;;;;;;;21.18;38.84;100923.41;5021011;28;20390;-63
2021/10/31 10:44:40;;;;;;;20.75;10.02;;;;;;;20.76;38.44;100904.56;5026933;28;20090;-62
2021/10/31 10:47:25;;;;;;;15.98;10.00;;;;;;;20.98;38.80;100899.13;5019737;28;20049;-61
2021/10/31 10:50:20;;;;;;;16.05;9.85;;;;;;;21.04;39.50;100894.34;5026052;28;20056;-66
2021/10/31 10:53:17;;;;;;;19.55;9.75;;;;;;;20.97;39.06;100884.75;5009595;28;20107;-68
2021/10/31 10:56:13;;;;;;;18.73;10.23;;;;;;;21.71;38.47;100894.81;5026607;28;20184;-64
2021/10/31 10:59:00;;;;;;;14.95;9.25;;;;;;;21.13;38.24;100890.34;5025423;28;20056;-69
2021/10/31 11:02:05;;;;;;;16.15;10.27;;;;;;;21.12;37.42;100875.97;5010293;28;20052;-72
2021/10/31 11:04:59;;;;;;;19.05;10.55;;;;;;;21.52;37.32;100877.72;5022122;28;20095;-68
2021/10/31 11:07:48;;;;;;;15.75;9.48;;;;;;;21.24;36.79;100874.56;5025657;28;20068;-65
2021/10/31 11:10:33;;;;;;;14.02;9.57;;;;;;;20.00;38.08;100860.19;5019642;28;20183;-60
2021/10/31 11:13:18;;;;;;;16.00;9.30;;;;;;;20.13;39.13;100856.09;5038537;28;20052;-62
2021/10/31 11:16:03;;;;;;;;;;;;;;;20.07;39.73;100855.44;5009143;28;20129;-65
2021/10/31 11:18:48;;;;;;;15.38;10.18;;;;;;;19.24;40.52;100857.91;5021887;28;19924;-64
2021/10/31 11:21:33;;;;;;;18.17;10.38;;;;;;;19.26;42.08;100856.91;5003798;28;20434;-65
2021/10/31 11:24:19;;;;;;;17.05;10.70;;;;;;;19.66;42.78;100864.31;5018657;28;20094;-64
2021/10/31 11:27:08;;;;;;;17.58;10.35;;;;;;;20.04;40.48;100864.53;5024178;28;20413;-63
2021/10/31 11:29:57;;;;;;;13.02;8.93;;;;;;;19.62;40.34;100868.06;5022816;28;20067;-65
2021/10/31 11:32:44;;;;;;;15.40;8.73;;;;;;;17.87;45.18;100860.91;5018359;28;20060;-64
2021/10/31 11:35:29;;;;;;;12.82;8.98;;;;;;;17.51;48.61;100848.66;4996382;28;20057;-66
2021/10/31 11:38:22;;;;;;;15.55;9.38;;;;;;;18.21;49.53;100854.44;5023104;28;20516;-64
2021/10/31 11:41:10;;;;;;;13.15;8.35;;;;;;;18.60;47.69;100859.34;4996696;28;20527;-69
2021/10/31 11:43:55;;;;;;;19.52;10.05;;;;;;;17.85;48.07;100849.34;4967423;28;20637;-64
2021/10/31 11:46:43;;;;;;;14.85;8.30;;;;;;;17.87;47.71;100852.88;5011728;28;20425;-65
2021/10/31 11:49:27;;;;;;;14.48;8.20;;;;;;;18.56;46.61;100862.19;5022101;28;20923;-64
2021/10/31 11:52:44;;;;;;;16.40;8.75;;;;;;;18.68;46.92;100854.59;5026549;28;20064;-65
2021/10/31 11:55:35;;;;;;;12.40;8.25;;;;;;;17.72;47.82;100857.81;5007709;28;20043;-71
2021/10/31 11:58:23;;;;;;;15.45;8.30;;;;;;;16.94;52.84;100846.81;5010849;28;20068;-65
2021/10/31 12:01:51;;;;;;;12.95;8.43;;;;;;;16.69;54.52;100845.75;5012253;28;20139;-64
2021/10/31 12:07:58;;;;;;;12.65;8.52;;;;;;;16.20;60.16;100830.06;4963786;28;20054;-66
2021/10/31 12:10:46;;;;;;;14.98;8.63;;;;;;;16.09;59.81;100844.63;4956511;28;20053;-68
2021/10/31 12:13:48;;;;;;;15.18;8.68;;;;;;;15.60;62.30;100831.59;4950590;28;20082;-67
2021/10/31 12:16:55;;;;;;;11.77;7.55;;;;;;;15.26;65.63;100827.00;4950981;28;20470;-60
2021/10/31 12:19:49;;;;;;;14.43;8.02;;;;;;;14.94;69.90;100822.34;4952078;28;20056;-63
2021/10/31 12:22:36;;;;;;;13.00;8.00;;;;;;;14.90;69.76;100819.75;4963111;28;20097;-65
2021/10/31 12:25:40;;;;;;;16.80;8.55;;;;;;;14.68;71.49;100816.63;4963492;28;20101;-66
2021/10/31 12:28:39;;;;;;;13.00;8.68;;;;;;;14.79;72.90;100819.13;4949430;28;20457;-65
2021/10/31 12:31:27;;;;;;;15.65;9.00;;;;;;;14.40;75.44;100828.75;4964065;28;20062;-69
2021/10/31 12:34:16;;;;;;;14.18;9.45;;;;;;;14.13;78.36;100810.59;4960068;28;20082;-67
2021/10/31 12:37:21;;;;;;;19.45;9.82;;;;;;;14.29;76.73;100816.53;4954013;28;20090;-58
2021/10/31 12:40:14;;;;;;;16.15;10.27;;;;;;;14.11;79.78;100816.84;4998579;28;20056;-65
2021/10/31 12:43:04;;;;;;;16.95;10.05;;;;;;;14.71;77.70;100808.56;5005367;28;20052;-65
2021/10/31 12:45:50;;;;;;;18.02;10.48;;;;;;;14.30;76.83;100820.97;5012842;28;20100;-63
2021/10/31 12:48:36;;;;;;;21.33;10.30;;;;;;;14.41;78.71;100818.97;5026588;28;20535;-63
2021/10/31 12:51:58;;;;;;;20.98;10.00;;;;;;;14.49;78.06;100817.94;5025005;28;20049;-70
2021/10/31 12:54:44;;;;;;;16.35;10.45;;;;;;;14.36;77.57;100816.38;5012939;28;20516;-62